Sines, Portugal

6:02 AM WEST on September 05, 2015 (GMT +0100)
Sines - ZIL2 | | Change Station
CLOSE
Current Station
Personal Weather Station
Location: Sines, SET�BAL
Elevation: 167 ft
Nearby Weather Stations

Elev 167 ft 37.96 °N, 8.85 °W | Updated 1 minute ago

Partly Cloudy
Partly Cloudy
57.6 °F
Feels Like 57.6 °F
N
0.0
Wind Variable Wind from ENE
Gusts 1.0 mph

Today
High -- | Low -- °F
--% Chance of Precip.
Yesterday
High -- | Low -- °F
Precip. -- in
7:08 AM 7:59 PM
Waning Gibbous, 52% visible
Pressure 30.01 in
Visibility 6.2 miles
Clouds Few 1200 ft
Dew Point 55 °F
Humidity 91%
Rainfall 0.00 in
Snow Depth Not available.
UV 0 out of 12
Pollen Not available.
Air Quality Not available.
Flu Activity Not available.
METAR LPPT 050430Z 32008KT 9999 FEW012 16/13 Q1016
Pressure 30.01 in
Visibility 6.2 miles
Clouds Few 1200 ft
Dew Point 55 °F
Humidity 91%
Rainfall 0.00 in
Snow Depth Not available.
UV 0 out of 12
Pollen Not available.
Air Quality Not available.
Flu Activity Not available.
METAR LPPT 050430Z 32008KT 9999 FEW012 16/13 Q1016

10-Day Weather Forecast

×

Almanac

Astronomy

Sep. 05, 2015 Rise Set
Actual Time
Civil Twilight
Nautical Twilight
Astronomical Twilight
Moon
Length of Visible Light
Length of Day
Tomorrow will be .
, % of the Moon is Illuminated

Today's Extremes

Country Highs Country Lows

Community

WunderPhotos

Upload Photos

1,852,426 photos uploaded!

WunderBlogs® & News

Nearby

Air Quality

  Air Quality AQ Index Pollutant
Not available.

Snow Depth

Station Depth Elevation

Earthquake Activity

City Distance Mag. Time & Date
Minimum magnitude displayed is 2.5.

Coastal Water Temperatures

Place Temperature

Stations

Nearby Weather Stations

Station Location Temp. Windchill Dew Point Humidity Wind Precip. Elev Updated Type